sensor_id;sensor_type;location;lat;lon;timestamp;P1;durP1;ratioP1;P2;durP2;ratioP2
45114;SDS011;30877;43.706;10.780;2023-06-10T00:00:04;6.80;;;3.00;;
45114;SDS011;30877;43.706;10.780;2023-06-10T00:02:39;7.03;;;3.60;;
45114;SDS011;30877;43.706;10.780;2023-06-10T00:05:08;4.72;;;3.55;;
45114;SDS011;30877;43.706;10.780;2023-06-10T00:07:37;6.15;;;3.20;;
45114;SDS011;30877;43.706;10.780;2023-06-10T00:10:07;6.72;;;2.92;;
45114;SDS011;30877;43.706;10.780;2023-06-10T00:12:37;6.63;;;2.92;;
45114;SDS011;30877;43.706;10.780;2023-06-10T00:15:06;5.93;;;3.17;;
45114;SDS011;30877;43.706;10.780;2023-06-10T00:17:35;5.15;;;3.10;;
45114;SDS011;30877;43.706;10.780;2023-06-10T00:20:07;9.30;;;3.58;;
45114;SDS011;30877;43.706;10.780;2023-06-10T00:22:39;6.90;;;3.30;;
45114;SDS011;30877;43.706;10.780;2023-06-10T00:25:10;5.15;;;3.28;;
45114;SDS011;30877;43.706;10.780;2023-06-10T00:27:38;5.30;;;3.13;;
45114;SDS011;30877;43.706;10.780;2023-06-10T00:30:06;5.93;;;3.17;;
45114;SDS011;30877;43.706;10.780;2023-06-10T00:32:38;6.80;;;3.15;;
45114;SDS011;30877;43.706;10.780;2023-06-10T00:35:07;5.13;;;2.80;;
45114;SDS011;30877;43.706;10.780;2023-06-10T00:37:35;5.90;;;3.10;;
45114;SDS011;30877;43.706;10.780;2023-06-10T00:40:04;7.93;;;2.92;;
45114;SDS011;30877;43.706;10.780;2023-06-10T00:42:33;5.38;;;3.42;;
45114;SDS011;30877;43.706;10.780;2023-06-10T00:45:02;8.27;;;3.20;;
45114;SDS011;30877;43.706;10.780;2023-06-10T00:47:30;5.00;;;2.88;;
45114;SDS011;30877;43.706;10.780;2023-06-10T00:49:58;8.77;;;3.67;;
45114;SDS011;30877;43.706;10.780;2023-06-10T00:52:27;5.28;;;3.13;;
45114;SDS011;30877;43.706;10.780;2023-06-10T00:54:59;5.22;;;3.05;;
45114;SDS011;30877;43.706;10.780;2023-06-10T00:57:27;5.85;;;3.03;;
45114;SDS011;30877;43.706;10.780;2023-06-10T00:59:58;5.68;;;3.08;;
45114;SDS011;30877;43.706;10.780;2023-06-10T01:02:26;5.30;;;3.25;;
45114;SDS011;30877;43.706;10.780;2023-06-10T01:04:57;6.15;;;3.08;;
45114;SDS011;30877;43.706;10.780;2023-06-10T01:07:30;4.28;;;3.35;;
45114;SDS011;30877;43.706;10.780;2023-06-10T01:10:05;6.03;;;3.47;;
45114;SDS011;30877;43.706;10.780;2023-06-10T01:12:41;6.63;;;3.80;;
45114;SDS011;30877;43.706;10.780;2023-06-10T01:15:17;4.95;;;3.30;;
45114;SDS011;30877;43.706;10.780;2023-06-10T01:17:55;7.13;;;3.35;;
45114;SDS011;30877;43.706;10.780;2023-06-10T01:20:25;5.28;;;2.97;;
45114;SDS011;30877;43.706;10.780;2023-06-10T01:22:58;5.20;;;3.22;;
45114;SDS011;30877;43.706;10.780;2023-06-10T01:25:27;4.88;;;2.78;;
45114;SDS011;30877;43.706;10.780;2023-06-10T01:27:58;6.40;;;3.17;;
45114;SDS011;30877;43.706;10.780;2023-06-10T01:30:32;4.50;;;3.17;;
45114;SDS011;30877;43.706;10.780;2023-06-10T01:33:16;4.45;;;3.10;;
45114;SDS011;30877;43.706;10.780;2023-06-10T01:36:00;5.60;;;2.40;;
45114;SDS011;30877;43.706;10.780;2023-06-10T01:38:32;4.05;;;2.78;;
45114;SDS011;30877;43.706;10.780;2023-06-10T01:41:04;4.68;;;3.20;;
45114;SDS011;30877;43.706;10.780;2023-06-10T01:43:33;3.92;;;2.97;;
45114;SDS011;30877;43.706;10.780;2023-06-10T01:46:01;4.68;;;2.75;;
45114;SDS011;30877;43.706;10.780;2023-06-10T01:48:29;6.07;;;2.95;;
45114;SDS011;30877;43.706;10.780;2023-06-10T01:50:58;5.50;;;2.75;;
45114;SDS011;30877;43.706;10.780;2023-06-10T01:53:26;5.75;;;3.08;;
45114;SDS011;30877;43.706;10.780;2023-06-10T01:55:56;4.97;;;2.60;;
45114;SDS011;30877;43.706;10.780;2023-06-10T01:58:23;4.97;;;2.85;;
45114;SDS011;30877;43.706;10.780;2023-06-10T02:00:52;4.72;;;2.90;;
45114;SDS011;30877;43.706;10.780;2023-06-10T02:03:20;5.80;;;2.97;;
45114;SDS011;30877;43.706;10.780;2023-06-10T02:05:49;5.10;;;2.55;;
45114;SDS011;30877;43.706;10.780;2023-06-10T02:08:17;3.72;;;2.42;;
45114;SDS011;30877;43.706;10.780;2023-06-10T02:10:45;4.15;;;2.42;;
45114;SDS011;30877;43.706;10.780;2023-06-10T02:13:15;5.25;;;3.03;;
45114;SDS011;30877;43.706;10.780;2023-06-10T02:15:43;5.32;;;2.90;;
45114;SDS011;30877;43.706;10.780;2023-06-10T02:18:11;6.40;;;3.00;;
45114;SDS011;30877;43.706;10.780;2023-06-10T02:20:40;5.15;;;2.83;;
45114;SDS011;30877;43.706;10.780;2023-06-10T02:23:07;3.53;;;2.50;;
45114;SDS011;30877;43.706;10.780;2023-06-10T02:25:35;4.05;;;2.42;;
45114;SDS011;30877;43.706;10.780;2023-06-10T02:28:04;4.13;;;2.50;;
45114;SDS011;30877;43.706;10.780;2023-06-10T02:30:33;5.63;;;2.38;;
45114;SDS011;30877;43.706;10.780;2023-06-10T02:33:03;5.63;;;3.08;;
45114;SDS011;30877;43.706;10.780;2023-06-10T02:35:32;4.20;;;2.70;;
45114;SDS011;30877;43.706;10.780;2023-06-10T02:38:00;5.60;;;2.65;;
45114;SDS011;30877;43.706;10.780;2023-06-10T02:40:28;5.10;;;2.55;;
45114;SDS011;30877;43.706;10.780;2023-06-10T02:42:56;4.20;;;2.50;;
45114;SDS011;30877;43.706;10.780;2023-06-10T02:45:25;8.82;;;3.00;;
45114;SDS011;30877;43.706;10.780;2023-06-10T02:47:58;5.65;;;3.10;;
45114;SDS011;30877;43.706;10.780;2023-06-10T02:50:26;4.55;;;2.70;;
45114;SDS011;30877;43.706;10.780;2023-06-10T02:53:02;4.97;;;2.78;;
45114;SDS011;30877;43.706;10.780;2023-06-10T02:55:32;3.63;;;2.70;;
45114;SDS011;30877;43.706;10.780;2023-06-10T02:58:06;5.78;;;2.90;;
45114;SDS011;30877;43.706;10.780;2023-06-10T03:00:34;5.72;;;2.90;;
45114;SDS011;30877;43.706;10.780;2023-06-10T03:03:04;6.60;;;3.08;;
45114;SDS011;30877;43.706;10.780;2023-06-10T03:05:41;5.80;;;3.00;;
45114;SDS011;30877;43.706;10.780;2023-06-10T03:08:10;5.50;;;2.90;;
45114;SDS011;30877;43.706;10.780;2023-06-10T03:10:41;4.85;;;2.83;;
45114;SDS011;30877;43.706;10.780;2023-06-10T03:13:12;5.43;;;2.97;;
45114;SDS011;30877;43.706;10.780;2023-06-10T03:15:41;5.93;;;2.75;;
45114;SDS011;30877;43.706;10.780;2023-06-10T03:18:14;3.85;;;2.58;;
45114;SDS011;30877;43.706;10.780;2023-06-10T03:20:43;6.18;;;3.00;;
45114;SDS011;30877;43.706;10.780;2023-06-10T03:23:11;6.93;;;2.58;;
45114;SDS011;30877;43.706;10.780;2023-06-10T03:25:39;6.07;;;2.88;;
45114;SDS011;30877;43.706;10.780;2023-06-10T03:28:12;9.13;;;3.22;;
45114;SDS011;30877;43.706;10.780;2023-06-10T03:30:40;5.75;;;2.70;;
45114;SDS011;30877;43.706;10.780;2023-06-10T03:33:09;7.03;;;3.10;;
45114;SDS011;30877;43.706;10.780;2023-06-10T03:35:40;3.95;;;2.20;;
45114;SDS011;30877;43.706;10.780;2023-06-10T03:38:08;4.45;;;2.90;;
45114;SDS011;30877;43.706;10.780;2023-06-10T03:40:37;6.03;;;2.60;;
45114;SDS011;30877;43.706;10.780;2023-06-10T03:43:06;6.18;;;3.15;;
45114;SDS011;30877;43.706;10.780;2023-06-10T03:45:35;7.25;;;3.28;;
45114;SDS011;30877;43.706;10.780;2023-06-10T03:48:04;6.85;;;3.63;;
45114;SDS011;30877;43.706;10.780;2023-06-10T03:50:54;6.40;;;3.45;;
45114;SDS011;30877;43.706;10.780;2023-06-10T03:53:22;8.63;;;3.58;;
45114;SDS011;30877;43.706;10.780;2023-06-10T03:55:50;5.22;;;2.95;;
45114;SDS011;30877;43.706;10.780;2023-06-10T03:58:22;6.63;;;2.95;;
45114;SDS011;30877;43.706;10.780;2023-06-10T04:00:50;5.75;;;2.65;;
45114;SDS011;30877;43.706;10.780;2023-06-10T04:03:18;6.22;;;3.13;;
45114;SDS011;30877;43.706;10.780;2023-06-10T04:05:51;5.32;;;2.65;;
45114;SDS011;30877;43.706;10.780;2023-06-10T04:08:20;3.88;;;2.50;;
45114;SDS011;30877;43.706;10.780;2023-06-10T04:10:48;7.53;;;3.15;;
45114;SDS011;30877;43.706;10.780;2023-06-10T04:13:16;8.13;;;3.33;;
45114;SDS011;30877;43.706;10.780;2023-06-10T04:15:51;7.13;;;3.20;;
45114;SDS011;30877;43.706;10.780;2023-06-10T04:18:19;4.68;;;2.63;;
45114;SDS011;30877;43.706;10.780;2023-06-10T04:20:53;4.72;;;2.30;;
45114;SDS011;30877;43.706;10.780;2023-06-10T04:23:23;4.45;;;2.88;;
45114;SDS011;30877;43.706;10.780;2023-06-10T04:25:51;3.53;;;3.10;;
45114;SDS011;30877;43.706;10.780;2023-06-10T04:28:19;5.05;;;2.90;;
45114;SDS011;30877;43.706;10.780;2023-06-10T04:30:47;5.07;;;2.60;;
45114;SDS011;30877;43.706;10.780;2023-06-10T04:33:15;6.68;;;3.47;;
45114;SDS011;30877;43.706;10.780;2023-06-10T04:35:44;6.32;;;3.03;;
45114;SDS011;30877;43.706;10.780;2023-06-10T04:38:16;6.18;;;3.83;;
45114;SDS011;30877;43.706;10.780;2023-06-10T04:40:45;5.32;;;3.42;;
45114;SDS011;30877;43.706;10.780;2023-06-10T04:43:15;4.90;;;2.88;;
45114;SDS011;30877;43.706;10.780;2023-06-10T04:45:45;6.13;;;2.92;;
45114;SDS011;30877;43.706;10.780;2023-06-10T04:48:13;7.13;;;3.22;;
45114;SDS011;30877;43.706;10.780;2023-06-10T04:50:41;7.78;;;3.83;;
45114;SDS011;30877;43.706;10.780;2023-06-10T04:53:09;6.85;;;3.58;;
45114;SDS011;30877;43.706;10.780;2023-06-10T04:55:40;5.65;;;3.33;;
45114;SDS011;30877;43.706;10.780;2023-06-10T04:58:09;6.30;;;3.70;;
45114;SDS011;30877;43.706;10.780;2023-06-10T05:00:37;6.78;;;3.85;;
45114;SDS011;30877;43.706;10.780;2023-06-10T05:03:05;4.97;;;3.30;;
45114;SDS011;30877;43.706;10.780;2023-06-10T05:05:33;7.13;;;3.95;;
45114;SDS011;30877;43.706;10.780;2023-06-10T05:08:01;6.47;;;3.80;;
45114;SDS011;30877;43.706;10.780;2023-06-10T05:10:33;6.22;;;3.72;;
45114;SDS011;30877;43.706;10.780;2023-06-10T05:13:01;5.72;;;3.83;;
45114;SDS011;30877;43.706;10.780;2023-06-10T05:15:31;7.82;;;3.92;;
45114;SDS011;30877;43.706;10.780;2023-06-10T05:18:00;8.40;;;3.80;;
45114;SDS011;30877;43.706;10.780;2023-06-10T05:20:30;7.20;;;3.70;;
45114;SDS011;30877;43.706;10.780;2023-06-10T05:22:58;6.03;;;3.03;;
45114;SDS011;30877;43.706;10.780;2023-06-10T05:25:26;4.13;;;3.08;;
45114;SDS011;30877;43.706;10.780;2023-06-10T05:27:57;4.80;;;2.90;;
45114;SDS011;30877;43.706;10.780;2023-06-10T05:30:24;5.93;;;3.70;;
45114;SDS011;30877;43.706;10.780;2023-06-10T05:32:54;6.53;;;3.58;;
45114;SDS011;30877;43.706;10.780;2023-06-10T05:35:23;5.13;;;3.53;;
45114;SDS011;30877;43.706;10.780;2023-06-10T05:37:51;7.05;;;3.60;;
45114;SDS011;30877;43.706;10.780;2023-06-10T05:40:19;6.57;;;3.22;;
45114;SDS011;30877;43.706;10.780;2023-06-10T05:42:47;9.20;;;3.83;;
45114;SDS011;30877;43.706;10.780;2023-06-10T05:45:15;7.55;;;3.00;;
45114;SDS011;30877;43.706;10.780;2023-06-10T05:47:43;7.20;;;3.40;;
45114;SDS011;30877;43.706;10.780;2023-06-10T05:50:12;6.90;;;3.45;;
45114;SDS011;30877;43.706;10.780;2023-06-10T05:52:43;8.23;;;2.70;;
45114;SDS011;30877;43.706;10.780;2023-06-10T05:55:11;4.90;;;3.13;;
45114;SDS011;30877;43.706;10.780;2023-06-10T05:57:41;7.20;;;3.60;;
45114;SDS011;30877;43.706;10.780;2023-06-10T06:00:10;4.35;;;3.15;;
45114;SDS011;30877;43.706;10.780;2023-06-10T06:02:39;5.20;;;3.42;;
45114;SDS011;30877;43.706;10.780;2023-06-10T06:05:08;6.75;;;3.17;;
45114;SDS011;30877;43.706;10.780;2023-06-10T06:07:38;6.85;;;3.45;;
45114;SDS011;30877;43.706;10.780;2023-06-10T06:10:07;6.30;;;3.15;;
45114;SDS011;30877;43.706;10.780;2023-06-10T06:12:36;6.90;;;3.17;;
45114;SDS011;30877;43.706;10.780;2023-06-10T06:15:05;6.53;;;3.40;;
45114;SDS011;30877;43.706;10.780;2023-06-10T06:17:36;6.28;;;3.28;;
45114;SDS011;30877;43.706;10.780;2023-06-10T06:20:05;6.78;;;2.90;;
45114;SDS011;30877;43.706;10.780;2023-06-10T06:22:34;8.77;;;3.13;;
45114;SDS011;30877;43.706;10.780;2023-06-10T06:25:04;8.02;;;3.50;;
45114;SDS011;30877;43.706;10.780;2023-06-10T06:27:34;7.47;;;3.10;;
45114;SDS011;30877;43.706;10.780;2023-06-10T06:30:02;7.20;;;3.40;;
45114;SDS011;30877;43.706;10.780;2023-06-10T06:32:32;8.77;;;3.95;;
45114;SDS011;30877;43.706;10.780;2023-06-10T06:35:00;7.68;;;3.38;;
45114;SDS011;30877;43.706;10.780;2023-06-10T06:37:29;8.15;;;3.08;;
45114;SDS011;30877;43.706;10.780;2023-06-10T06:40:14;5.75;;;3.17;;
45114;SDS011;30877;43.706;10.780;2023-06-10T06:42:42;6.25;;;3.00;;
45114;SDS011;30877;43.706;10.780;2023-06-10T06:45:50;8.07;;;3.70;;
45114;SDS011;30877;43.706;10.780;2023-06-10T06:48:18;6.70;;;3.08;;
45114;SDS011;30877;43.706;10.780;2023-06-10T06:50:47;8.95;;;3.50;;
45114;SDS011;30877;43.706;10.780;2023-06-10T06:53:15;6.00;;;3.17;;
45114;SDS011;30877;43.706;10.780;2023-06-10T06:55:45;5.85;;;2.80;;
45114;SDS011;30877;43.706;10.780;2023-06-10T06:58:13;7.10;;;3.40;;
45114;SDS011;30877;43.706;10.780;2023-06-10T07:00:42;8.15;;;3.28;;
45114;SDS011;30877;43.706;10.780;2023-06-10T07:03:10;7.15;;;3.45;;
45114;SDS011;30877;43.706;10.780;2023-06-10T07:05:39;7.15;;;3.78;;
45114;SDS011;30877;43.706;10.780;2023-06-10T07:08:07;6.03;;;3.90;;
45114;SDS011;30877;43.706;10.780;2023-06-10T07:10:35;5.03;;;3.47;;
45114;SDS011;30877;43.706;10.780;2023-06-10T07:13:05;8.88;;;3.97;;
45114;SDS011;30877;43.706;10.780;2023-06-10T07:15:34;4.75;;;4.00;;
45114;SDS011;30877;43.706;10.780;2023-06-10T07:18:02;8.65;;;4.35;;
45114;SDS011;30877;43.706;10.780;2023-06-10T07:20:31;8.52;;;4.88;;
45114;SDS011;30877;43.706;10.780;2023-06-10T07:22:59;10.50;;;5.30;;
45114;SDS011;30877;43.706;10.780;2023-06-10T07:25:28;8.38;;;5.75;;
45114;SDS011;30877;43.706;10.780;2023-06-10T07:27:56;6.78;;;5.97;;
45114;SDS011;30877;43.706;10.780;2023-06-10T07:30:26;11.25;;;6.00;;
45114;SDS011;30877;43.706;10.780;2023-06-10T07:32:55;9.40;;;5.57;;
45114;SDS011;30877;43.706;10.780;2023-06-10T07:35:23;16.52;;;5.53;;
45114;SDS011;30877;43.706;10.780;2023-06-10T07:37:52;7.63;;;4.63;;
45114;SDS011;30877;43.706;10.780;2023-06-10T07:40:20;7.32;;;4.32;;
45114;SDS011;30877;43.706;10.780;2023-06-10T07:42:48;10.55;;;4.45;;
45114;SDS011;30877;43.706;10.780;2023-06-10T07:45:17;10.50;;;4.47;;
45114;SDS011;30877;43.706;10.780;2023-06-10T07:47:47;8.50;;;4.90;;
45114;SDS011;30877;43.706;10.780;2023-06-10T07:50:15;7.60;;;4.47;;
45114;SDS011;30877;43.706;10.780;2023-06-10T07:52:44;7.55;;;5.00;;
45114;SDS011;30877;43.706;10.780;2023-06-10T07:55:12;12.70;;;5.70;;
45114;SDS011;30877;43.706;10.780;2023-06-10T07:57:40;8.27;;;5.15;;
45114;SDS011;30877;43.706;10.780;2023-06-10T08:00:09;9.35;;;5.82;;
45114;SDS011;30877;43.706;10.780;2023-06-10T08:02:38;8.40;;;6.05;;
45114;SDS011;30877;43.706;10.780;2023-06-10T08:05:08;10.77;;;6.00;;
45114;SDS011;30877;43.706;10.780;2023-06-10T08:07:37;8.90;;;6.10;;
45114;SDS011;30877;43.706;10.780;2023-06-10T08:10:08;10.77;;;6.90;;
45114;SDS011;30877;43.706;10.780;2023-06-10T08:12:37;10.93;;;6.18;;
45114;SDS011;30877;43.706;10.780;2023-06-10T08:15:06;9.20;;;5.80;;
45114;SDS011;30877;43.706;10.780;2023-06-10T08:17:36;11.20;;;6.22;;
45114;SDS011;30877;43.706;10.780;2023-06-10T08:20:05;10.15;;;6.43;;
45114;SDS011;30877;43.706;10.780;2023-06-10T08:22:36;8.30;;;5.95;;
45114;SDS011;30877;43.706;10.780;2023-06-10T08:25:05;9.02;;;5.57;;
45114;SDS011;30877;43.706;10.780;2023-06-10T08:27:34;10.65;;;6.38;;
45114;SDS011;30877;43.706;10.780;2023-06-10T08:30:03;8.93;;;6.22;;
45114;SDS011;30877;43.706;10.780;2023-06-10T08:32:33;10.95;;;6.25;;
45114;SDS011;30877;43.706;10.780;2023-06-10T08:35:02;10.13;;;5.88;;
45114;SDS011;30877;43.706;10.780;2023-06-10T08:37:32;9.30;;;5.43;;
45114;SDS011;30877;43.706;10.780;2023-06-10T08:40:01;10.13;;;5.80;;
45114;SDS011;30877;43.706;10.780;2023-06-10T08:42:32;9.75;;;4.97;;
45114;SDS011;30877;43.706;10.780;2023-06-10T08:45:07;8.40;;;5.15;;
45114;SDS011;30877;43.706;10.780;2023-06-10T08:47:37;8.60;;;4.88;;
45114;SDS011;30877;43.706;10.780;2023-06-10T08:50:10;7.97;;;4.20;;
45114;SDS011;30877;43.706;10.780;2023-06-10T08:52:42;8.73;;;4.50;;
45114;SDS011;30877;43.706;10.780;2023-06-10T08:55:13;8.85;;;5.70;;
45114;SDS011;30877;43.706;10.780;2023-06-10T08:57:46;7.07;;;4.72;;
45114;SDS011;30877;43.706;10.780;2023-06-10T09:00:16;9.23;;;4.88;;
45114;SDS011;30877;43.706;10.780;2023-06-10T09:02:45;7.80;;;4.60;;
45114;SDS011;30877;43.706;10.780;2023-06-10T09:05:14;7.47;;;4.13;;
45114;SDS011;30877;43.706;10.780;2023-06-10T09:07:45;5.90;;;4.35;;
45114;SDS011;30877;43.706;10.780;2023-06-10T09:10:15;6.95;;;4.30;;
45114;SDS011;30877;43.706;10.780;2023-06-10T09:12:43;7.07;;;4.60;;
45114;SDS011;30877;43.706;10.780;2023-06-10T09:15:12;7.72;;;4.13;;
45114;SDS011;30877;43.706;10.780;2023-06-10T09:17:41;7.35;;;4.07;;
45114;SDS011;30877;43.706;10.780;2023-06-10T09:20:10;6.13;;;3.75;;
45114;SDS011;30877;43.706;10.780;2023-06-10T09:22:40;6.65;;;3.60;;
45114;SDS011;30877;43.706;10.780;2023-06-10T09:25:11;5.05;;;3.28;;
45114;SDS011;30877;43.706;10.780;2023-06-10T09:27:45;7.63;;;3.45;;
45114;SDS011;30877;43.706;10.780;2023-06-10T09:30:23;8.38;;;3.75;;
45114;SDS011;30877;43.706;10.780;2023-06-10T09:32:56;5.35;;;3.03;;
45114;SDS011;30877;43.706;10.780;2023-06-10T09:35:26;7.03;;;3.17;;
45114;SDS011;30877;43.706;10.780;2023-06-10T09:37:56;5.90;;;3.05;;
45114;SDS011;30877;43.706;10.780;2023-06-10T09:40:27;6.43;;;3.25;;
45114;SDS011;30877;43.706;10.780;2023-06-10T09:42:56;7.40;;;3.13;;
45114;SDS011;30877;43.706;10.780;2023-06-10T09:45:28;4.35;;;2.90;;
45114;SDS011;30877;43.706;10.780;2023-06-10T09:47:59;5.13;;;2.90;;
45114;SDS011;30877;43.706;10.780;2023-06-10T09:50:28;5.45;;;2.67;;
45114;SDS011;30877;43.706;10.780;2023-06-10T09:53:02;6.85;;;3.25;;
45114;SDS011;30877;43.706;10.780;2023-06-10T09:55:35;5.55;;;2.92;;
45114;SDS011;30877;43.706;10.780;2023-06-10T09:58:05;7.82;;;3.10;;
45114;SDS011;30877;43.706;10.780;2023-06-10T10:00:33;6.43;;;2.83;;
45114;SDS011;30877;43.706;10.780;2023-06-10T10:03:01;7.93;;;3.25;;
45114;SDS011;30877;43.706;10.780;2023-06-10T10:05:30;5.43;;;3.20;;
45114;SDS011;30877;43.706;10.780;2023-06-10T10:07:58;4.20;;;3.00;;
45114;SDS011;30877;43.706;10.780;2023-06-10T10:10:26;5.63;;;3.00;;
45114;SDS011;30877;43.706;10.780;2023-06-10T10:12:57;6.65;;;3.10;;
45114;SDS011;30877;43.706;10.780;2023-06-10T10:15:28;5.75;;;2.70;;
45114;SDS011;30877;43.706;10.780;2023-06-10T10:18:00;6.57;;;3.13;;
45114;SDS011;30877;43.706;10.780;2023-06-10T10:20:33;4.68;;;3.15;;
45114;SDS011;30877;43.706;10.780;2023-06-10T10:23:08;6.65;;;2.90;;
45114;SDS011;30877;43.706;10.780;2023-06-10T10:25:40;5.03;;;3.28;;
45114;SDS011;30877;43.706;10.780;2023-06-10T10:28:12;5.88;;;3.60;;
45114;SDS011;30877;43.706;10.780;2023-06-10T10:30:42;5.10;;;3.42;;
45114;SDS011;30877;43.706;10.780;2023-06-10T10:33:16;5.65;;;3.35;;
45114;SDS011;30877;43.706;10.780;2023-06-10T10:35:46;5.25;;;3.05;;
45114;SDS011;30877;43.706;10.780;2023-06-10T10:38:15;6.88;;;3.35;;
45114;SDS011;30877;43.706;10.780;2023-06-10T10:40:44;6.22;;;2.80;;
45114;SDS011;30877;43.706;10.780;2023-06-10T10:43:14;6.95;;;2.80;;
45114;SDS011;30877;43.706;10.780;2023-06-10T10:45:44;6.00;;;2.60;;
45114;SDS011;30877;43.706;10.780;2023-06-10T10:48:13;6.95;;;2.88;;
45114;SDS011;30877;43.706;10.780;2023-06-10T10:50:42;4.18;;;2.88;;
45114;SDS011;30877;43.706;10.780;2023-06-10T10:53:10;6.78;;;2.55;;
45114;SDS011;30877;43.706;10.780;2023-06-10T10:55:38;5.60;;;2.72;;
45114;SDS011;30877;43.706;10.780;2023-06-10T10:58:07;4.57;;;2.55;;
45114;SDS011;30877;43.706;10.780;2023-06-10T11:00:44;6.40;;;2.95;;
45114;SDS011;30877;43.706;10.780;2023-06-10T11:03:13;7.05;;;2.38;;
45114;SDS011;30877;43.706;10.780;2023-06-10T11:05:47;5.43;;;2.88;;
45114;SDS011;30877;43.706;10.780;2023-06-10T11:11:17;7.00;;;2.72;;
45114;SDS011;30877;43.706;10.780;2023-06-10T11:16:54;4.80;;;2.33;;
45114;SDS011;30877;43.706;10.780;2023-06-10T11:19:34;4.78;;;2.40;;
45114;SDS011;30877;43.706;10.780;2023-06-10T11:22:05;5.65;;;2.55;;
45114;SDS011;30877;43.706;10.780;2023-06-10T11:24:34;4.78;;;2.78;;
45114;SDS011;30877;43.706;10.780;2023-06-10T11:27:14;7.47;;;2.78;;
45114;SDS011;30877;43.706;10.780;2023-06-10T11:32:51;6.13;;;2.95;;
45114;SDS011;30877;43.706;10.780;2023-06-10T11:35:20;5.28;;;2.75;;
45114;SDS011;30877;43.706;10.780;2023-06-10T11:37:51;8.93;;;2.90;;
45114;SDS011;30877;43.706;10.780;2023-06-10T11:40:19;6.85;;;2.72;;
45114;SDS011;30877;43.706;10.780;2023-06-10T11:42:48;6.25;;;3.05;;
45114;SDS011;30877;43.706;10.780;2023-06-10T11:45:16;6.40;;;3.08;;
45114;SDS011;30877;43.706;10.780;2023-06-10T11:47:56;8.70;;;2.67;;
45114;SDS011;30877;43.706;10.780;2023-06-10T11:50:29;6.70;;;2.85;;
45114;SDS011;30877;43.706;10.780;2023-06-10T11:52:57;9.98;;;3.45;;
45114;SDS011;30877;43.706;10.780;2023-06-10T11:55:25;7.07;;;2.75;;
45114;SDS011;30877;43.706;10.780;2023-06-10T11:58:11;9.20;;;3.63;;
45114;SDS011;30877;43.706;10.780;2023-06-10T12:00:43;5.78;;;3.00;;
45114;SDS011;30877;43.706;10.780;2023-06-10T12:03:14;5.95;;;3.10;;
45114;SDS011;30877;43.706;10.780;2023-06-10T12:05:54;7.10;;;3.47;;
45114;SDS011;30877;43.706;10.780;2023-06-10T12:08:25;6.07;;;3.65;;
45114;SDS011;30877;43.706;10.780;2023-06-10T12:10:57;6.57;;;3.85;;
45114;SDS011;30877;43.706;10.780;2023-06-10T12:25:01;6.60;;;3.40;;
45114;SDS011;30877;43.706;10.780;2023-06-10T12:27:30;8.77;;;3.15;;
45114;SDS011;30877;43.706;10.780;2023-06-10T12:29:59;6.00;;;3.63;;
45114;SDS011;30877;43.706;10.780;2023-06-10T12:32:39;6.43;;;2.95;;
45114;SDS011;30877;43.706;10.780;2023-06-10T12:35:08;6.65;;;3.35;;
45114;SDS011;30877;43.706;10.780;2023-06-10T12:37:37;9.00;;;3.70;;
45114;SDS011;30877;43.706;10.780;2023-06-10T12:40:10;6.40;;;3.50;;
45114;SDS011;30877;43.706;10.780;2023-06-10T12:42:39;5.28;;;2.90;;
45114;SDS011;30877;43.706;10.780;2023-06-10T12:45:09;6.25;;;3.00;;
45114;SDS011;30877;43.706;10.780;2023-06-10T12:47:39;6.40;;;2.88;;
45114;SDS011;30877;43.706;10.780;2023-06-10T12:50:08;5.82;;;2.85;;
45114;SDS011;30877;43.706;10.780;2023-06-10T12:52:39;7.65;;;2.90;;
45114;SDS011;30877;43.706;10.780;2023-06-10T12:55:08;4.18;;;2.70;;
45114;SDS011;30877;43.706;10.780;2023-06-10T12:57:47;6.05;;;3.22;;
45114;SDS011;30877;43.706;10.780;2023-06-10T13:00:16;3.88;;;2.10;;
45114;SDS011;30877;43.706;10.780;2023-06-10T13:02:45;4.50;;;2.42;;
45114;SDS011;30877;43.706;10.780;2023-06-10T13:05:13;4.07;;;2.35;;
45114;SDS011;30877;43.706;10.780;2023-06-10T13:07:43;5.00;;;2.58;;
45114;SDS011;30877;43.706;10.780;2023-06-10T13:10:13;5.00;;;2.60;;
45114;SDS011;30877;43.706;10.780;2023-06-10T13:12:41;5.72;;;2.42;;
45114;SDS011;30877;43.706;10.780;2023-06-10T13:15:14;2.97;;;1.63;;
45114;SDS011;30877;43.706;10.780;2023-06-10T13:17:43;3.05;;;1.88;;
45114;SDS011;30877;43.706;10.780;2023-06-10T13:20:12;5.15;;;2.00;;
45114;SDS011;30877;43.706;10.780;2023-06-10T13:22:40;3.72;;;1.80;;
45114;SDS011;30877;43.706;10.780;2023-06-10T13:25:09;3.53;;;2.00;;
45114;SDS011;30877;43.706;10.780;2023-06-10T13:27:39;5.97;;;2.20;;
45114;SDS011;30877;43.706;10.780;2023-06-10T13:30:09;5.25;;;2.08;;
45114;SDS011;30877;43.706;10.780;2023-06-10T13:32:38;4.97;;;2.38;;
45114;SDS011;30877;43.706;10.780;2023-06-10T13:35:07;4.03;;;1.75;;
45114;SDS011;30877;43.706;10.780;2023-06-10T13:37:36;5.65;;;2.42;;
45114;SDS011;30877;43.706;10.780;2023-06-10T13:40:05;4.38;;;2.08;;
45114;SDS011;30877;43.706;10.780;2023-06-10T13:42:35;3.33;;;2.00;;
45114;SDS011;30877;43.706;10.780;2023-06-10T13:45:05;6.22;;;2.33;;
45114;SDS011;30877;43.706;10.780;2023-06-10T13:47:34;4.38;;;2.00;;
45114;SDS011;30877;43.706;10.780;2023-06-10T13:50:02;5.25;;;2.53;;
45114;SDS011;30877;43.706;10.780;2023-06-10T13:52:31;3.38;;;1.75;;
45114;SDS011;30877;43.706;10.780;2023-06-10T13:54:59;3.83;;;2.33;;
45114;SDS011;30877;43.706;10.780;2023-06-10T13:57:27;5.10;;;2.50;;
45114;SDS011;30877;43.706;10.780;2023-06-10T13:59:54;7.15;;;2.53;;
45114;SDS011;30877;43.706;10.780;2023-06-10T14:02:24;4.13;;;1.95;;
45114;SDS011;30877;43.706;10.780;2023-06-10T14:04:52;5.50;;;2.13;;
45114;SDS011;30877;43.706;10.780;2023-06-10T14:07:20;4.10;;;2.08;;
45114;SDS011;30877;43.706;10.780;2023-06-10T14:09:48;3.95;;;1.95;;
45114;SDS011;30877;43.706;10.780;2023-06-10T14:12:16;4.20;;;1.83;;
45114;SDS011;30877;43.706;10.780;2023-06-10T14:14:43;5.28;;;1.85;;
45114;SDS011;30877;43.706;10.780;2023-06-10T14:17:11;3.08;;;1.70;;
45114;SDS011;30877;43.706;10.780;2023-06-10T14:19:41;5.20;;;1.95;;
45114;SDS011;30877;43.706;10.780;2023-06-10T14:22:09;6.75;;;1.70;;
45114;SDS011;30877;43.706;10.780;2023-06-10T14:24:37;3.30;;;1.95;;
45114;SDS011;30877;43.706;10.780;2023-06-10T14:27:05;4.15;;;1.90;;
45114;SDS011;30877;43.706;10.780;2023-06-10T14:29:33;3.65;;;2.17;;
45114;SDS011;30877;43.706;10.780;2023-06-10T14:32:02;4.00;;;2.03;;
45114;SDS011;30877;43.706;10.780;2023-06-10T14:34:35;4.60;;;2.20;;
45114;SDS011;30877;43.706;10.780;2023-06-10T14:37:05;3.85;;;2.05;;
45114;SDS011;30877;43.706;10.780;2023-06-10T14:39:34;6.60;;;2.38;;
45114;SDS011;30877;43.706;10.780;2023-06-10T14:42:03;4.38;;;2.13;;
45114;SDS011;30877;43.706;10.780;2023-06-10T14:44:31;4.93;;;2.22;;
45114;SDS011;30877;43.706;10.780;2023-06-10T14:46:59;4.32;;;1.85;;
45114;SDS011;30877;43.706;10.780;2023-06-10T14:49:27;4.53;;;2.30;;
45114;SDS011;30877;43.706;10.780;2023-06-10T14:51:55;3.78;;;2.00;;
45114;SDS011;30877;43.706;10.780;2023-06-10T14:54:25;5.65;;;1.85;;
45114;SDS011;30877;43.706;10.780;2023-06-10T14:56:53;3.25;;;2.03;;
45114;SDS011;30877;43.706;10.780;2023-06-10T14:59:21;3.70;;;2.20;;
45114;SDS011;30877;43.706;10.780;2023-06-10T15:01:49;6.40;;;2.08;;
45114;SDS011;30877;43.706;10.780;2023-06-10T15:04:17;5.43;;;1.73;;
45114;SDS011;30877;43.706;10.780;2023-06-10T15:06:50;5.35;;;1.95;;
45114;SDS011;30877;43.706;10.780;2023-06-10T15:09:17;4.18;;;1.85;;